KFFL

Fairfield Municipal Airport

Fairfield, Iowa, USA
METAR KFFL 231055Z AUTO 12004KT 9SM BKN100 17/16 A3012 RMK AO2 PWINO
Observed Flight Rules
May-23 @ 10:55 UTC (21 minutes ago) Visual Flight Rules
Wind Visibility Clouds
120° at 4 knots 9 miles
  • Broken at 10,000' AGL
Temperatures Readings
Current 17°C / 63°F
Dewpoint 16°C / 61°F
Humidity 94%
Altimeter 30.12" Hg
Pressure 1020 hPa
Elevation 244
METAR KFFL 231055Z AUTO 12004KT 9SM BKN100 17/16 A3012 RMK AO2 PWINO
Observed Flight Rules
May-23 @ 10:55 UTC
(21 minutes ago)
VFR
Wind Visibility
120° at 4 knots 9 miles
Clouds
  • Broken at 10,000' AGL
Temperature Dewpoint
17°C / 63°F 16°C / 61°F
Humidity Altimeter Pressure
94% 30.12" Hg 1020 hPa